Date,TemperatureHighF,TemperatureAvgF,TemperatureLowF,DewpointHighF,DewpointAvgF,DewpointLowF,HumidityHigh,HumidityAvg,HumidityLow,PressureMaxIn,PressureMinIn,WindSpeedMaxMPH,WindSpeedAvgMPH,GustSpeedMaxMPH,PrecipitationSumIn
2013-1-1,53.0,40.1,33.0,38.0,34.2,31.0,96,81,45,30.29,30.20,6,1,0,0.00
2013-1-2,57.0,39.8,29.0,38.0,33.1,27.0,96,80,44,30.27,30.15,3,0,0,0.00
2013-1-3,55.0,39.8,29.0,40.0,33.9,27.0,97,82,51,30.27,30.18,2,0,0,0.00
2013-1-4,56.0,41.1,31.0,44.0,36.4,29.0,96,84,61,30.31,30.19,3,0,0,0.00
2013-1-5,52.0,42.0,33.0,44.0,39.0,31.0,97,90,73,30.28,30.10,2,0,0,0.00
2013-1-6,52.0,45.4,38.0,47.0,42.8,35.0,97,91,76,30.19,30.09,3,1,0,0.00
2013-1-7,49.0,40.4,35.0,45.0,38.7,34.0,97,94,86,30.26,30.14,3,0,0,0.00
2013-1-8,57.0,43.9,34.0,47.0,40.2,33.0,98,88,66,30.26,30.14,2,0,0,0.00
2013-1-9,50.0,44.3,38.0,47.0,41.1,35.0,99,89,68,30.19,29.93,3,1,0,0.00
2013-1-10,50.0,39.6,31.0,39.0,33.2,29.0,97,80,51,30.16,30.02,6,1,0,0.00
2013-1-11,51.0,36.9,28.0,37.0,30.9,27.0,96,81,46,30.24,30.12,2,0,0,0.00
2013-1-12,48.0,37.7,29.0,33.0,28.2,22.0,94,72,36,30.24,30.15,4,1,0,0.00
2013-1-13,45.0,34.5,24.0,33.0,26.3,22.0,95,74,51,30.27,30.16,5,1,0,0.00
2013-1-14,50.0,38.5,29.0,29.0,23.4,19.0,83,57,29,30.42,30.20,5,2,0,0.00
2013-1-15,52.0,38.9,29.0,35.0,30.8,26.0,93,75,48,30.50,30.40,2,0,0,0.00
2013-1-16,58.0,40.8,29.0,39.0,33.0,27.0,96,77,45,30.45,30.29,2,0,0,0.00
2013-1-17,62.0,42.2,29.0,40.0,33.4,27.0,96,75,37,30.30,30.17,2,0,0,0.00
2013-1-18,61.0,43.0,30.0,41.0,34.3,28.0,96,75,38,30.26,30.15,4,0,0,0.00
2013-1-19,62.0,43.8,30.0,40.0,34.4,28.0,96,74,35,30.29,30.17,5,1,0,0.00
2013-1-20,63.0,43.4,30.0,40.0,33.2,28.0,96,72,33,30.26,30.13,4,1,0,0.00
2013-1-21,63.0,43.9,31.0,41.0,35.2,29.0,95,75,38,30.21,30.11,2,0,0,0.00
2013-1-22,64.0,45.8,33.0,44.0,38.1,31.0,96,77,44,30.16,30.03,2,0,0,0.00
2013-1-23,58.0,48.4,43.0,49.0,44.1,40.0,95,86,57,30.10,29.98,4,1,0,0.00
2013-1-24,55.0,51.2,48.0,53.0,49.6,47.0,96,94,86,30.19,30.07,5,1,0,0.00
2013-1-25,66.0,56.9,52.0,56.0,53.2,51.0,97,88,69,30.19,30.03,4,1,0,0.00
2013-1-26,61.0,53.2,44.0,53.0,47.8,40.0,97,83,53,30.04,29.93,5,1,0,0.00
2013-1-27,55.0,45.0,36.0,43.0,38.0,34.0,96,78,48,30.16,30.01,5,1,0,0.00
2013-1-28,57.0,43.9,32.0,40.0,35.9,30.0,96,76,47,30.26,30.13,6,1,0,0.00
2013-1-29,60.0,46.2,36.0,42.0,37.9,34.0,95,75,44,30.33,30.23,8,2,0,0.00
2013-1-30,62.0,47.6,35.0,46.0,40.3,33.0,97,78,55,30.36,30.26,3,1,0,0.00
2013-1-31,65.0,52.0,36.0,48.0,43.4,34.0,97,75,52,30.31,30.19,3,0,0,0.00